createdAt,value
2022-08-11T00:02:00.839Z,18.70
2022-08-11T00:04:34.678Z,18.62
2022-08-11T00:07:05.123Z,18.60
2022-08-11T00:09:39.693Z,18.60
2022-08-11T00:12:16.973Z,18.65
2022-08-11T00:14:46.384Z,18.62
2022-08-11T00:17:16.094Z,18.62
2022-08-11T00:20:13.345Z,18.56
2022-08-11T00:22:39.809Z,18.63
2022-08-11T00:25:38.311Z,18.55
2022-08-11T00:28:24.126Z,18.56
2022-08-11T00:30:57.633Z,18.52
2022-08-11T00:33:41.318Z,18.45
2022-08-11T00:36:18.205Z,18.39
2022-08-11T00:38:52.164Z,18.38
2022-08-11T00:41:47.646Z,18.38
2022-08-11T00:44:30.318Z,18.36
2022-08-11T00:47:09.957Z,18.37
2022-08-11T00:49:58.782Z,18.37
2022-08-11T00:52:45.136Z,18.31
2022-08-11T00:55:55.392Z,18.16
2022-08-11T00:59:03.906Z,18.20
2022-08-11T01:01:37.351Z,18.05
2022-08-11T01:04:24.314Z,18.13
2022-08-11T01:08:01.272Z,18.11
2022-08-11T01:10:33.999Z,18.12
2022-08-11T01:13:23.610Z,18.12
2022-08-11T01:16:06.124Z,18.08
2022-08-11T01:18:36.692Z,18.07
2022-08-11T01:21:58.828Z,18.08
2022-08-11T01:24:52.828Z,18.06
2022-08-11T01:27:20.422Z,18.03
2022-08-11T01:29:59.600Z,17.98
2022-08-11T01:32:55.370Z,17.97
2022-08-11T01:36:01.483Z,17.92
2022-08-11T01:38:56.823Z,17.91
2022-08-11T01:42:00.231Z,17.88
2022-08-11T01:47:56.202Z,17.85
2022-08-11T01:50:40.112Z,17.87
2022-08-11T01:53:07.545Z,17.85
2022-08-11T01:56:08.981Z,17.80
2022-08-11T01:58:58.163Z,17.73
2022-08-11T02:01:53.472Z,17.75
2022-08-11T02:04:48.019Z,17.76
2022-08-11T02:07:38.842Z,17.77
2022-08-11T02:10:42.415Z,17.77
2022-08-11T02:13:36.816Z,17.74
2022-08-11T02:16:21.762Z,17.74
2022-08-11T02:19:19.747Z,17.74
2022-08-11T02:22:28.599Z,17.74
2022-08-11T02:25:17.608Z,17.81
2022-08-11T02:27:53.112Z,17.77
2022-08-11T02:30:26.674Z,17.75
2022-08-11T02:33:21.762Z,17.73
2022-08-11T02:36:19.710Z,17.75
2022-08-11T02:39:01.668Z,17.76
2022-08-11T02:42:32.665Z,17.79
2022-08-11T02:45:37.564Z,17.78
2022-08-11T02:48:42.423Z,17.82
2022-08-11T02:51:24.734Z,17.81
2022-08-11T02:54:01.119Z,17.81
2022-08-11T02:56:45.479Z,17.81
2022-08-11T02:59:50.196Z,17.85
2022-08-11T03:02:23.505Z,17.78
2022-08-11T03:05:17.741Z,17.74
2022-08-11T03:08:03.643Z,17.75
2022-08-11T03:10:43.764Z,17.73
2022-08-11T03:13:37.758Z,17.75
2022-08-11T03:16:37.551Z,17.70
2022-08-11T03:19:42.208Z,17.79
2022-08-11T03:22:31.294Z,17.80
2022-08-11T03:25:30.397Z,17.76
2022-08-11T03:28:12.462Z,17.77
2022-08-11T03:30:57.051Z,17.75
2022-08-11T03:33:52.010Z,17.78
2022-08-11T03:37:16.712Z,17.73
2022-08-11T03:39:57.011Z,17.78
2022-08-11T03:42:30.496Z,17.79
2022-08-11T03:45:16.880Z,17.76
2022-08-11T03:48:09.097Z,17.81
2022-08-11T03:50:39.434Z,17.81
2022-08-11T03:53:14.090Z,17.86
2022-08-11T03:56:11.585Z,17.80
2022-08-11T03:58:51.089Z,17.84
2022-08-11T04:01:55.572Z,17.86
2022-08-11T04:04:51.462Z,17.90
2022-08-11T04:07:46.439Z,17.90
2022-08-11T04:10:58.307Z,17.99
2022-08-11T04:14:17.905Z,17.99
2022-08-11T04:17:19.656Z,18.00
2022-08-11T04:19:51.010Z,18.01
2022-08-11T04:22:21.311Z,18.05
2022-08-11T04:25:09.031Z,18.07
2022-08-11T04:28:08.563Z,18.12
2022-08-11T04:31:44.301Z,18.18
2022-08-11T04:34:26.905Z,18.19
2022-08-11T04:37:34.363Z,18.22
2022-08-11T04:40:11.352Z,18.27
2022-08-11T04:43:03.776Z,18.31
2022-08-11T04:46:19.157Z,18.35
2022-08-11T04:49:11.111Z,18.39
2022-08-11T04:51:58.406Z,18.48
2022-08-11T04:55:06.777Z,18.53
2022-08-11T04:58:10.582Z,18.55
2022-08-11T05:01:07.698Z,18.60
2022-08-11T05:03:48.735Z,18.65
2022-08-11T05:06:33.375Z,18.71
2022-08-11T05:09:09.857Z,18.75
2022-08-11T05:12:14.507Z,18.83
2022-08-11T05:15:10.390Z,18.88
2022-08-11T05:18:05.159Z,19.04
2022-08-11T05:21:05.452Z,19.17
2022-08-11T05:23:54.364Z,19.37
2022-08-11T05:26:46.807Z,19.56
2022-08-11T05:29:47.447Z,19.74
2022-08-11T05:32:36.294Z,20.02
2022-08-11T05:35:07.587Z,20.29
2022-08-11T05:37:43.134Z,20.52
2022-08-11T05:40:31.978Z,20.68
2022-08-11T05:43:21.896Z,20.76
2022-08-11T05:46:25.663Z,21.02
2022-08-11T05:49:12.792Z,21.12
2022-08-11T05:52:05.119Z,21.23
2022-08-11T05:55:03.946Z,21.39
2022-08-11T05:57:48.316Z,21.32
2022-08-11T06:00:20.809Z,21.21
2022-08-11T06:02:55.428Z,21.29
2022-08-11T06:05:25.214Z,21.44
2022-08-11T06:07:57.297Z,21.59
2022-08-11T06:10:34.894Z,21.70
2022-08-11T06:13:03.528Z,21.84
2022-08-11T06:15:43.622Z,21.93
2022-08-11T06:18:13.975Z,22.05
2022-08-11T06:20:50.969Z,22.19
2022-08-11T06:23:23.198Z,22.45
2022-08-11T06:25:53.173Z,22.53
2022-08-11T06:28:39.803Z,22.65
2022-08-11T06:31:25.376Z,22.94
2022-08-11T06:34:11.515Z,23.04
2022-08-11T06:37:06.002Z,23.35
2022-08-11T06:39:42.303Z,23.70
2022-08-11T06:42:29.068Z,23.69
2022-08-11T06:45:27.714Z,24.00
2022-08-11T06:48:00.820Z,24.49
2022-08-11T06:50:49.045Z,24.92
2022-08-11T06:53:19.513Z,24.82
2022-08-11T06:56:08.255Z,24.87
2022-08-11T06:58:58.966Z,25.00
2022-08-11T07:01:46.761Z,25.24
2022-08-11T07:04:50.083Z,25.01
2022-08-11T07:08:34.506Z,25.05
2022-08-11T07:11:45.904Z,25.14
2022-08-11T07:14:39.450Z,25.54
2022-08-11T07:17:14.220Z,26.01
2022-08-11T07:20:06.474Z,26.71
2022-08-11T07:22:54.923Z,27.61
2022-08-11T07:25:41.379Z,28.48
2022-08-11T07:28:37.067Z,29.36
2022-08-11T07:31:14.096Z,29.45
2022-08-11T07:34:06.845Z,30.36
2022-08-11T07:36:46.185Z,30.57
2022-08-11T07:39:21.103Z,30.86
2022-08-11T07:41:52.155Z,31.25
2022-08-11T07:44:21.342Z,31.29
2022-08-11T07:47:09.693Z,30.84
2022-08-11T07:49:58.536Z,31.02
2022-08-11T07:52:34.099Z,31.47
2022-08-11T07:55:08.441Z,31.30
2022-08-11T07:58:17.004Z,31.60
2022-08-11T08:01:10.604Z,31.05
2022-08-11T08:04:08.329Z,30.76
2022-08-11T08:06:55.911Z,30.90
2022-08-11T08:09:43.378Z,30.50
2022-08-11T08:12:31.907Z,30.23
2022-08-11T08:15:20.309Z,30.12
2022-08-11T08:18:09.191Z,30.15
2022-08-11T08:20:47.566Z,29.85
2022-08-11T08:23:17.618Z,29.56
2022-08-11T08:25:46.145Z,28.79
2022-08-11T08:28:17.795Z,28.19
2022-08-11T08:30:50.874Z,27.59
2022-08-11T08:33:27.490Z,27.29
2022-08-11T08:36:15.495Z,26.99
2022-08-11T08:38:51.303Z,26.73
2022-08-11T08:41:40.053Z,26.59
2022-08-11T08:44:35.088Z,26.26
2022-08-11T08:47:00.319Z,26.25
2022-08-11T08:49:40.219Z,26.07
2022-08-11T08:52:26.194Z,25.92
2022-08-11T08:55:04.001Z,25.86
2022-08-11T08:57:39.025Z,25.74
2022-08-11T09:00:12.929Z,25.83
2022-08-11T09:02:44.880Z,25.81
2022-08-11T09:05:12.829Z,25.68
2022-08-11T09:07:41.768Z,25.69
2022-08-11T09:10:11.842Z,25.67
2022-08-11T09:12:42.800Z,25.68
2022-08-11T09:15:12.639Z,25.66
2022-08-11T09:17:46.174Z,25.63
2022-08-11T09:20:26.840Z,25.58
2022-08-11T09:26:30.544Z,25.58
2022-08-11T09:29:00.519Z,25.46
2022-08-11T09:31:37.270Z,25.44
2022-08-11T09:34:10.717Z,25.46
2022-08-11T09:37:00.029Z,25.50
2022-08-11T09:39:50.884Z,25.41
2022-08-11T09:42:23.153Z,25.38
2022-08-11T09:44:53.825Z,25.44
2022-08-11T09:47:26.461Z,25.40
2022-08-11T09:50:00.698Z,25.39
2022-08-11T09:52:36.681Z,25.46
2022-08-11T09:55:11.099Z,25.47
2022-08-11T09:58:04.857Z,25.49
2022-08-11T10:00:38.111Z,25.49
2022-08-11T10:03:18.087Z,25.54
2022-08-11T10:06:11.394Z,25.59
2022-08-11T10:08:41.819Z,25.64
2022-08-11T10:11:15.207Z,25.69
2022-08-11T10:14:33.922Z,25.71
2022-08-11T10:16:53.686Z,25.73
2022-08-11T10:19:22.689Z,25.71
2022-08-11T10:22:13.718Z,25.69
2022-08-11T10:25:02.886Z,25.70
2022-08-11T10:28:17.476Z,25.69
2022-08-11T10:30:39.301Z,25.68
2022-08-11T10:33:37.238Z,25.64
2022-08-11T10:36:16.464Z,25.64
2022-08-11T10:38:46.847Z,25.67
2022-08-11T10:41:33.588Z,25.71
2022-08-11T10:44:04.111Z,25.76
2022-08-11T10:46:51.085Z,25.80
2022-08-11T10:49:20.255Z,25.86
2022-08-11T10:52:06.716Z,25.88
2022-08-11T10:54:54.842Z,25.84
2022-08-11T10:57:41.794Z,25.81
2022-08-11T11:00:16.062Z,25.86
2022-08-11T11:02:45.143Z,25.88
2022-08-11T11:05:33.768Z,25.91
2022-08-11T11:08:28.163Z,25.98
2022-08-11T11:10:56.994Z,26.01
2022-08-11T11:13:55.038Z,26.06
2022-08-11T11:16:42.798Z,25.90
2022-08-11T11:19:13.179Z,25.94
2022-08-11T11:21:43.004Z,25.97
2022-08-11T11:24:34.003Z,25.88
2022-08-11T11:27:08.582Z,25.95
2022-08-11T11:30:09.157Z,25.90
2022-08-11T11:32:58.101Z,25.89
2022-08-11T11:35:54.551Z,25.97
2022-08-11T11:38:22.445Z,26.01
2022-08-11T11:41:13.573Z,26.07
2022-08-11T11:43:42.458Z,26.11
2022-08-11T11:46:11.283Z,26.10
2022-08-11T11:48:40.517Z,26.20
2022-08-11T11:51:09.468Z,26.06
2022-08-11T11:53:37.339Z,26.02
2022-08-11T11:56:05.936Z,26.00
2022-08-11T11:58:52.283Z,26.03
2022-08-11T12:01:24.167Z,26.06
2022-08-11T12:03:54.023Z,26.10
2022-08-11T12:06:25.264Z,26.10
2022-08-11T12:08:55.701Z,26.05
2022-08-11T12:11:44.055Z,26.07
2022-08-11T12:14:13.073Z,26.11
2022-08-11T12:16:43.384Z,26.06
2022-08-11T12:19:17.751Z,26.12
2022-08-11T12:22:04.694Z,26.13
2022-08-11T12:24:53.772Z,26.08
2022-08-11T12:27:24.247Z,26.06
2022-08-11T12:29:58.278Z,25.96
2022-08-11T12:32:31.856Z,25.92
2022-08-11T12:34:59.996Z,25.96
2022-08-11T12:37:31.706Z,25.94
2022-08-11T12:40:43.256Z,26.03
2022-08-11T12:43:38.129Z,26.02
2022-08-11T12:46:11.473Z,25.88
2022-08-11T12:49:04.492Z,25.96
2022-08-11T12:52:11.287Z,26.08
2022-08-11T12:55:11.007Z,25.87
2022-08-11T12:58:05.540Z,25.79
2022-08-11T13:00:52.520Z,25.84
2022-08-11T13:03:40.137Z,25.91
2022-08-11T13:06:08.592Z,25.86
2022-08-11T13:08:37.960Z,25.86
2022-08-11T13:11:56.720Z,25.84
2022-08-11T13:14:15.899Z,25.81
2022-08-11T13:17:04.028Z,25.84
2022-08-11T13:19:32.396Z,25.81
2022-08-11T13:22:02.433Z,25.84
2022-08-11T13:24:34.150Z,25.86
2022-08-11T13:27:03.115Z,25.85
2022-08-11T13:29:31.166Z,25.85
2022-08-11T13:32:02.304Z,25.92
2022-08-11T13:34:34.408Z,25.99
2022-08-11T13:37:05.319Z,26.01
2022-08-11T13:39:36.118Z,26.08
2022-08-11T13:42:05.189Z,26.17
2022-08-11T13:44:36.444Z,26.16
2022-08-11T13:47:06.899Z,26.15
2022-08-11T13:49:40.888Z,26.02
2022-08-11T13:52:16.703Z,25.93
2022-08-11T13:54:48.257Z,25.86
2022-08-11T13:58:09.172Z,25.85
2022-08-11T14:00:23.521Z,25.80
2022-08-11T14:02:56.683Z,25.77
2022-08-11T14:05:31.452Z,25.77
2022-08-11T14:08:04.579Z,25.78
2022-08-11T14:10:39.054Z,25.84
2022-08-11T14:13:41.352Z,25.82
2022-08-11T14:16:25.123Z,25.79
2022-08-11T14:18:57.807Z,25.70
2022-08-11T14:21:46.187Z,25.67
2022-08-11T14:24:22.964Z,25.67
2022-08-11T14:26:51.813Z,25.63
2022-08-11T14:29:21.917Z,25.60
2022-08-11T14:31:54.849Z,25.60
2022-08-11T14:34:25.211Z,25.61
2022-08-11T14:36:56.452Z,25.58
2022-08-11T14:39:30.283Z,25.49
2022-08-11T14:42:20.005Z,25.50
2022-08-11T14:45:22.802Z,25.49
2022-08-11T14:47:55.196Z,25.48
2022-08-11T14:50:27.207Z,25.49
2022-08-11T14:52:56.620Z,25.52
2022-08-11T14:55:44.958Z,25.49
2022-08-11T14:58:15.038Z,25.57
2022-08-11T15:00:43.661Z,25.56
2022-08-11T15:03:13.706Z,25.61
2022-08-11T15:05:52.312Z,25.67
2022-08-11T15:08:52.390Z,25.73
2022-08-11T15:11:41.194Z,25.75
2022-08-11T15:14:11.083Z,25.74
2022-08-11T15:17:01.454Z,25.74
2022-08-11T15:19:40.366Z,25.75
2022-08-11T15:22:36.426Z,25.75
2022-08-11T15:25:04.806Z,25.76
2022-08-11T15:27:52.849Z,25.76
2022-08-11T15:30:45.863Z,25.80
2022-08-11T15:33:35.562Z,25.74
2022-08-11T15:36:26.191Z,25.71
2022-08-11T15:39:23.129Z,25.68
2022-08-11T15:42:31.353Z,25.68
2022-08-11T15:45:21.061Z,25.56
2022-08-11T15:48:02.484Z,25.47
2022-08-11T15:50:40.166Z,25.42
2022-08-11T15:53:24.321Z,25.33
2022-08-11T15:55:53.351Z,25.34
2022-08-11T15:58:42.013Z,25.26
2022-08-11T16:01:30.813Z,25.24
2022-08-11T16:04:12.639Z,25.21
2022-08-11T16:07:05.366Z,25.16
2022-08-11T16:09:51.997Z,25.15
2022-08-11T16:12:28.686Z,25.07
2022-08-11T16:15:21.907Z,25.09
2022-08-11T16:17:56.114Z,25.08
2022-08-11T16:20:28.242Z,25.15
2022-08-11T16:23:03.157Z,25.12
2022-08-11T16:27:03.923Z,25.11
2022-08-11T16:28:24.584Z,25.12
2022-08-11T16:30:54.349Z,25.12
2022-08-11T16:33:50.469Z,25.10
2022-08-11T16:36:33.735Z,25.04
2022-08-11T16:39:02.559Z,24.99
2022-08-11T16:41:51.916Z,24.96
2022-08-11T16:44:40.047Z,24.91
2022-08-11T16:47:12.232Z,24.86
2022-08-11T16:49:52.881Z,24.80
2022-08-11T16:52:23.057Z,24.79
2022-08-11T16:54:52.872Z,24.82
2022-08-11T16:57:43.182Z,24.79
2022-08-11T17:00:15.015Z,24.75
2022-08-11T17:03:09.189Z,24.78
2022-08-11T17:06:00.777Z,24.70
2022-08-11T17:08:57.392Z,24.67
2022-08-11T17:11:47.763Z,24.65
2022-08-11T17:14:35.727Z,24.66
2022-08-11T17:17:13.439Z,24.55
2022-08-11T17:20:40.582Z,24.48
2022-08-11T17:23:01.564Z,24.47
2022-08-11T17:25:32.355Z,24.43
2022-08-11T17:28:21.831Z,24.38
2022-08-11T17:31:18.428Z,24.32
2022-08-11T17:34:10.199Z,24.40
2022-08-11T17:36:44.573Z,24.24
2022-08-11T17:39:14.526Z,24.19
2022-08-11T17:42:02.867Z,24.23
2022-08-11T17:44:50.381Z,24.20
2022-08-11T17:47:38.107Z,24.21
2022-08-11T17:50:09.470Z,24.12
2022-08-11T17:53:05.759Z,24.13
2022-08-11T17:56:05.255Z,24.13
2022-08-11T17:58:54.304Z,24.04
2022-08-11T18:01:24.135Z,23.99
2022-08-11T18:03:57.924Z,23.96
2022-08-11T18:06:33.685Z,23.91
2022-08-11T18:09:25.997Z,23.83
2022-08-11T18:12:14.148Z,23.79
2022-08-11T18:15:07.291Z,23.75
2022-08-11T18:17:55.457Z,23.74
2022-08-11T18:20:42.764Z,23.70
2022-08-11T18:23:41.787Z,23.68
2022-08-11T18:26:39.630Z,23.61
2022-08-11T18:29:27.132Z,23.61
2022-08-11T18:32:21.857Z,23.57
2022-08-11T18:35:13.490Z,23.54
2022-08-11T18:38:05.566Z,23.45
2022-08-11T18:40:54.422Z,23.41
2022-08-11T18:43:44.948Z,23.46
2022-08-11T18:46:35.051Z,23.39
2022-08-11T18:50:01.671Z,23.31
2022-08-11T18:52:38.683Z,23.35
2022-08-11T18:55:30.262Z,23.28
2022-08-11T18:58:19.562Z,23.16
2022-08-11T19:01:06.856Z,23.26
2022-08-11T19:03:55.826Z,23.19
2022-08-11T19:06:58.161Z,23.10
2022-08-11T19:09:47.158Z,22.98
2022-08-11T19:12:34.340Z,23.03
2022-08-11T19:15:22.023Z,23.05
2022-08-11T19:18:09.073Z,22.98
2022-08-11T19:20:56.826Z,22.99
2022-08-11T19:23:52.338Z,23.00
2022-08-11T19:26:39.296Z,22.93
2022-08-11T19:30:07.541Z,22.90
2022-08-11T19:32:34.176Z,22.84
2022-08-11T19:35:22.052Z,22.86
2022-08-11T19:38:10.434Z,22.80
2022-08-11T19:40:58.269Z,22.72
2022-08-11T19:43:49.630Z,22.69
2022-08-11T19:46:39.908Z,22.66
2022-08-11T19:49:27.804Z,22.59
2022-08-11T19:52:15.819Z,22.57
2022-08-11T19:55:03.518Z,22.56
2022-08-11T19:57:51.184Z,22.50
2022-08-11T20:00:41.858Z,22.46
2022-08-11T20:03:30.297Z,22.48
2022-08-11T20:06:22.287Z,22.40
2022-08-11T20:09:11.480Z,22.43
2022-08-11T20:12:01.652Z,22.35
2022-08-11T20:14:52.344Z,22.30
2022-08-11T20:17:42.428Z,22.30
2022-08-11T20:20:32.586Z,22.28
2022-08-11T20:23:23.846Z,22.18
2022-08-11T20:26:30.377Z,22.11
2022-08-11T20:29:19.157Z,22.13
2022-08-11T20:32:09.371Z,22.11
2022-08-11T20:34:58.974Z,22.10
2022-08-11T20:37:51.089Z,22.09
2022-08-11T20:40:40.992Z,22.04
2022-08-11T20:44:08.265Z,21.95
2022-08-11T20:46:38.807Z,21.96
2022-08-11T20:49:41.278Z,21.97
2022-08-11T20:52:38.150Z,21.89
2022-08-11T20:55:51.519Z,21.84
2022-08-11T20:59:10.979Z,21.81
2022-08-11T21:01:44.677Z,21.79
2022-08-11T21:04:32.376Z,21.73
2022-08-11T21:07:29.056Z,21.77
2022-08-11T21:10:23.289Z,21.72
2022-08-11T21:13:25.916Z,21.61
2022-08-11T21:16:26.248Z,21.58
2022-08-11T21:20:00.489Z,21.57
2022-08-11T21:22:45.186Z,21.53
2022-08-11T21:25:48.029Z,21.49
2022-08-11T21:28:37.068Z,21.45
2022-08-11T21:31:25.646Z,21.44
2022-08-11T21:34:12.358Z,21.34
2022-08-11T21:37:01.451Z,21.33
2022-08-11T21:39:49.483Z,21.32
2022-08-11T21:42:39.206Z,21.27
2022-08-11T21:45:27.596Z,21.17
2022-08-11T21:48:15.534Z,21.14
2022-08-11T21:51:01.746Z,21.20
2022-08-11T21:53:49.685Z,21.22
2022-08-11T21:56:36.852Z,21.17
2022-08-11T21:59:24.088Z,21.19
2022-08-11T22:02:12.958Z,21.10
2022-08-11T22:05:00.929Z,21.04
2022-08-11T22:07:47.506Z,21.02
2022-08-11T22:10:41.898Z,20.92
2022-08-11T22:13:32.764Z,20.88
2022-08-11T22:16:19.081Z,20.78
2022-08-11T22:19:08.309Z,20.74
2022-08-11T22:22:03.989Z,20.66
2022-08-11T22:24:54.603Z,20.67
2022-08-11T22:27:40.929Z,20.57
2022-08-11T22:30:30.834Z,20.54
2022-08-11T22:33:24.462Z,20.43
2022-08-11T22:36:14.362Z,20.62
2022-08-11T22:39:03.902Z,20.37
2022-08-11T22:41:50.194Z,20.31
2022-08-11T22:44:36.441Z,20.30
2022-08-11T22:47:27.385Z,20.34
2022-08-11T22:50:22.893Z,20.23
2022-08-11T22:53:10.107Z,20.25
2022-08-11T22:55:58.591Z,20.23
2022-08-11T22:58:44.865Z,20.23
2022-08-11T23:01:35.698Z,20.08
2022-08-11T23:04:23.322Z,20.10
2022-08-11T23:07:10.223Z,20.03
2022-08-11T23:09:58.674Z,19.97
2022-08-11T23:12:46.926Z,20.01
2022-08-11T23:15:33.894Z,20.11
2022-08-11T23:18:24.418Z,20.06
2022-08-11T23:21:10.784Z,19.94
2022-08-11T23:23:57.986Z,20.00
2022-08-11T23:26:48.709Z,19.91
2022-08-11T23:29:36.751Z,19.92
2022-08-11T23:32:24.122Z,19.97
2022-08-11T23:35:38.583Z,19.83
2022-08-11T23:38:21.326Z,19.80
2022-08-11T23:41:07.888Z,19.74
2022-08-11T23:43:54.527Z,19.69
2022-08-11T23:46:44.057Z,19.62
2022-08-11T23:49:30.570Z,19.68
2022-08-11T23:52:17.688Z,19.67
2022-08-11T23:55:04.523Z,19.68
2022-08-11T23:57:51.477Z,19.61
